Time;durP1;ratioP1;P1;durP2;ratioP2;P2;SDS_P1;SDS_P2;PMS_P1;PMS_P2;Temp;Humidity;BMP_temperature;BMP_pressure;BME280_temperature;BME280_humidity;BME280_pressure;Samples;Min_cycle;Max_cycle;Signal;HPM_P1;HPM_P2
2021/05/18 00:01:50;;;;;;;0.67;0.50;;;;;;;10.19;100.00;97771.81;5095962;28;20207;-67
2021/05/18 00:04:16;;;;;;;1.70;0.70;;;;;;;10.26;100.00;97768.63;5095780;28;20242;-66
2021/05/18 00:06:42;;;;;;;0.70;0.50;;;;;;;10.30;100.00;97774.53;5095889;28;20290;-67
2021/05/18 00:11:52;;;;;;;1.03;0.57;;;;;;;10.39;100.00;97779.97;5095835;28;20269;-69
2021/05/18 00:14:21;;;;;;;0.70;0.50;;;;;;;10.38;100.00;97788.00;5094181;28;20214;-69
2021/05/18 00:16:48;;;;;;;1.73;0.77;;;;;;;10.25;100.00;97787.22;5096077;28;20210;-68
2021/05/18 00:19:15;;;;;;;0.40;0.40;;;;;;;10.13;100.00;97793.41;5095928;28;20214;-68
2021/05/18 00:21:41;;;;;;;0.60;0.40;;;;;;;9.88;100.00;97804.00;5095763;28;20242;-67
2021/05/18 00:24:09;;;;;;;1.27;0.70;;;;;;;9.88;100.00;97804.00;5095886;28;20221;-67
2021/05/18 00:26:35;;;;;;;1.03;0.50;;;;;;;9.85;100.00;97804.25;5095565;28;20227;-66
2021/05/18 00:29:01;;;;;;;0.83;0.40;;;;;;;9.86;100.00;97805.94;5095476;28;20207;-67
2021/05/18 00:31:27;;;;;;;0.40;0.40;;;;;;;9.81;100.00;97805.41;5095492;28;20207;-66
2021/05/18 00:33:53;;;;;;;0.40;0.40;;;;;;;9.79;100.00;97805.50;5095375;28;20697;-66
2021/05/18 00:36:20;;;;;;;0.93;0.70;;;;;;;9.70;100.00;97811.44;5095614;28;20208;-66
2021/05/18 00:38:46;;;;;;;0.57;0.57;;;;;;;9.71;100.00;97810.50;5095695;28;20221;-67
2021/05/18 00:41:12;;;;;;;0.60;0.40;;;;;;;9.69;100.00;97806.28;5093948;28;20261;-67
2021/05/18 00:43:40;;;;;;;1.47;0.70;;;;;;;9.59;100.00;97808.72;5095566;28;20206;-66
2021/05/18 00:46:07;;;;;;;1.17;1.07;;;;;;;9.55;100.00;97806.41;5095530;28;20229;-67
2021/05/18 00:48:33;;;;;;;0.93;0.60;;;;;;;9.49;100.00;97817.38;5095546;28;20214;-66
2021/05/18 00:51:03;;;;;;;0.70;0.50;;;;;;;9.50;100.00;97816.44;5095277;28;20214;-69
2021/05/18 00:53:30;;;;;;;0.60;0.60;;;;;;;9.53;100.00;97818.84;5094909;28;20207;-70
2021/05/18 00:55:57;;;;;;;0.67;0.60;;;;;;;9.63;100.00;97819.91;5095331;28;20217;-67
2021/05/18 00:58:29;;;;;;;0.50;0.50;;;;;;;9.67;100.00;97821.38;5095043;28;20283;-66
2021/05/18 01:00:57;;;;;;;0.97;0.50;;;;;;;9.55;100.00;97811.69;5095226;28;20207;-68
2021/05/18 01:03:23;;;;;;;0.57;0.50;;;;;;;9.53;100.00;97821.47;5095104;28;20215;-66
2021/05/18 01:08:34;;;;;;;0.70;0.50;;;;;;;9.30;100.00;97828.34;5094346;28;20212;-65
2021/05/18 01:11:01;;;;;;;0.57;0.57;;;;;;;9.19;100.00;97824.78;5094654;28;20676;-65
2021/05/18 01:13:29;;;;;;;0.50;0.50;;;;;;;9.17;100.00;97821.41;5094869;28;20316;-65
2021/05/18 01:15:55;;;;;;;0.40;0.40;;;;;;;9.16;100.00;97830.25;5094593;28;20252;-65
2021/05/18 01:18:21;;;;;;;0.73;0.40;;;;;;;9.16;100.00;97827.59;5094508;28;20211;-65
2021/05/18 01:20:56;;;;;;;0.47;0.47;;;;;;;9.31;100.00;97819.50;5094450;28;20228;-65
2021/05/18 01:23:22;;;;;;;0.50;0.50;;;;;;;9.43;100.00;97823.91;5094827;28;20217;-65
2021/05/18 01:25:48;;;;;;;0.60;0.60;;;;;;;9.45;100.00;97816.75;5094635;28;20229;-65
2021/05/18 01:28:14;;;;;;;0.50;0.50;;;;;;;9.45;100.00;97832.59;5094714;28;20219;-65
2021/05/18 01:30:40;;;;;;;0.57;0.50;;;;;;;9.50;100.00;97834.91;5094289;28;20216;-65
2021/05/18 01:33:06;;;;;;;0.50;0.50;;;;;;;9.51;100.00;97829.53;5092570;28;20675;-65
2021/05/18 01:35:33;;;;;;;1.47;0.60;;;;;;;9.51;100.00;97836.59;5094191;28;20672;-66
2021/05/18 01:38:01;;;;;;;0.50;0.50;;;;;;;9.54;100.00;97828.47;5094476;28;20214;-65
2021/05/18 01:43:08;;;;;;;1.33;0.57;;;;;;;9.49;100.00;97839.31;5093907;28;20243;-65
2021/05/18 01:45:34;;;;;;;0.60;0.50;;;;;;;9.51;100.00;97836.59;5094116;28;20303;-65
2021/05/18 01:48:04;;;;;;;0.40;0.40;;;;;;;9.55;100.00;97840.72;5094043;28;20673;-65
2021/05/18 01:50:31;;;;;;;0.50;0.50;;;;;;;9.55;100.00;97838.06;5094254;28;20206;-65
2021/05/18 01:52:57;;;;;;;0.60;0.60;;;;;;;9.55;100.00;97830.16;5094177;28;20971;-64
2021/05/18 01:55:29;;;;;;;1.23;0.50;;;;;;;9.56;100.00;97826.56;5093976;28;20587;-66
2021/05/18 01:57:55;;;;;;;1.43;0.90;;;;;;;9.52;100.00;97827.72;5094143;28;20554;-67
2021/05/18 02:00:24;;;;;;;0.50;0.50;;;;;;;9.53;100.00;97819.69;5092272;28;20219;-67
2021/05/18 02:02:50;;;;;;;0.60;0.60;;;;;;;9.53;100.00;97819.69;5093431;28;20212;-67
2021/05/18 02:05:18;;;;;;;0.50;0.50;;;;;;;9.48;100.00;97820.97;5093233;28;20291;-67
2021/05/18 02:07:47;;;;;;;0.50;0.50;;;;;;;9.40;100.00;97825.94;5093916;28;20210;-67
2021/05/18 02:10:17;;;;;;;0.67;0.67;;;;;;;9.37;100.00;97818.25;5093586;28;20216;-67
2021/05/18 02:12:44;;;;;;;0.60;0.60;;;;;;;9.36;100.00;97827.09;5093867;28;20216;-67
2021/05/18 02:15:23;;;;;;;1.00;0.70;;;;;;;9.34;100.00;97826.34;5093774;28;20212;-67
2021/05/18 02:18:13;;;;;;;0.67;0.67;;;;;;;9.28;100.00;97835.53;5093425;28;20232;-67
2021/05/18 02:20:42;;;;;;;0.60;0.60;;;;;;;9.22;100.00;97835.09;5093773;28;20265;-67
2021/05/18 02:25:52;;;;;;;1.43;0.50;;;;;;;9.05;100.00;97838.88;5091676;28;20267;-67
2021/05/18 02:28:19;;;;;;;0.70;0.70;;;;;;;8.91;100.00;97846.03;5095114;28;20217;-66
2021/05/18 02:30:48;;;;;;;1.10;0.70;;;;;;;8.89;100.00;97853.22;5095631;28;20212;-67
2021/05/18 02:33:14;;;;;;;1.60;0.50;;;;;;;8.82;100.00;97846.66;5093593;28;20209;-67
2021/05/18 02:35:40;;;;;;;0.70;0.60;;;;;;;8.71;100.00;97855.28;5093511;28;20629;-67
2021/05/18 02:38:07;;;;;;;0.60;0.60;;;;;;;8.65;100.00;97854.84;5093513;28;20235;-67
2021/05/18 02:40:36;;;;;;;0.60;0.60;;;;;;;8.62;100.00;97861.16;5093254;28;20215;-67
2021/05/18 02:43:02;;;;;;;1.33;0.70;;;;;;;8.59;100.00;97855.22;5093357;28;20225;-66
2021/05/18 02:45:32;;;;;;;1.33;0.90;;;;;;;8.62;100.00;97860.31;5093262;28;20249;-67
2021/05/18 02:50:43;;;;;;;0.70;0.70;;;;;;;8.56;100.00;97851.00;5091320;28;20255;-66
2021/05/18 02:53:10;;;;;;;1.00;0.83;;;;;;;8.66;100.00;97856.53;5093464;28;20267;-66
2021/05/18 02:55:41;;;;;;;1.20;0.80;;;;;;;8.71;100.00;97857.06;5093192;28;20218;-66
2021/05/18 02:58:08;;;;;;;1.93;0.80;;;;;;;8.74;100.00;97855.06;5093271;28;20271;-66
2021/05/18 03:00:36;;;;;;;2.17;0.63;;;;;;;8.75;100.00;97851.47;5093253;28;20211;-66
2021/05/18 03:03:03;;;;;;;1.17;0.70;;;;;;;8.65;100.00;97850.44;5093243;28;20217;-66
2021/05/18 03:05:29;;;;;;;0.83;0.70;;;;;;;8.58;100.00;97854.38;5092989;28;20242;-66
2021/05/18 03:07:55;;;;;;;0.63;0.63;;;;;;;8.57;100.00;97859.78;5092828;28;20710;-66
2021/05/18 03:10:22;;;;;;;1.50;0.70;;;;;;;8.57;100.00;97862.41;5093069;28;20209;-65
2021/05/18 03:12:49;;;;;;;0.60;0.60;;;;;;;8.59;100.00;97857.88;5092758;28;20217;-66
2021/05/18 03:15:16;;;;;;;0.93;0.60;;;;;;;8.65;100.00;97866.22;5094457;28;20560;-65
2021/05/18 03:17:43;;;;;;;0.70;0.70;;;;;;;8.72;100.00;97856.97;5095246;28;20229;-66
2021/05/18 03:20:13;;;;;;;2.80;0.60;;;;;;;8.73;100.00;97855.16;5096935;28;20292;-65
2021/05/18 03:22:39;;;;;;;1.20;0.60;;;;;;;8.81;100.00;97855.53;5096814;28;20214;-66
2021/05/18 03:25:06;;;;;;;1.03;0.60;;;;;;;8.88;100.00;97857.63;5096918;28;20243;-66
2021/05/18 03:27:32;;;;;;;0.60;0.60;;;;;;;8.94;100.00;97856.38;5096993;28;20262;-66
2021/05/18 03:30:00;;;;;;;0.60;0.60;;;;;;;9.01;100.00;97857.66;5096947;28;20221;-66
2021/05/18 03:35:11;;;;;;;0.93;0.57;;;;;;;9.17;100.00;97864.41;5096607;28;20219;-66
2021/05/18 03:37:51;;;;;;;1.10;0.70;;;;;;;9.20;100.00;97863.38;5096737;28;20210;-66
2021/05/18 03:40:17;;;;;;;1.20;0.60;;;;;;;9.21;100.00;97860.63;5096684;28;20248;-66
2021/05/18 03:42:47;;;;;;;0.60;0.60;;;;;;;9.28;100.00;97858.41;5094971;28;20235;-66
2021/05/18 03:45:17;;;;;;;0.57;0.50;;;;;;;9.31;100.00;97864.31;5096627;28;20278;-66
2021/05/18 03:53:25;;;;;;;1.70;0.60;;;;;;;9.17;100.00;97874.97;5096274;28;20217;-66
2021/05/18 03:58:54;;;;;;;0.50;0.50;;;;;;;8.99;100.00;97870.09;5038790;28;20302;-66
2021/05/18 04:04:12;;;;;;;0.80;0.70;;;;;;;8.93;100.00;97878.44;5096091;28;20661;-67
2021/05/18 04:17:38;;;;;;;1.23;0.70;;;;;;;9.43;100.00;97896.94;5095818;28;20245;-67
2021/05/18 04:20:16;;;;;;;1.23;0.80;;;;;;;9.46;100.00;97899.34;5095676;28;20218;-67
2021/05/18 04:23:12;;;;;;;0.80;0.80;;;;;;;9.61;100.00;97906.25;5095592;28;20318;-68
2021/05/18 04:26:04;;;;;;;0.57;0.57;;;;;;;9.80;100.00;97901.38;5095876;28;20283;-67
2021/05/18 04:39:57;;;;;;;0.80;0.60;;;;;;;9.99;100.00;97925.53;5095461;28;20252;-65
2021/05/18 04:48:27;;;;;;;1.00;0.87;;;;;;;10.04;100.00;97926.09;5095160;28;20212;-66
2021/05/18 04:51:01;;;;;;;1.00;0.70;;;;;;;10.05;100.00;97933.06;5094970;28;20668;-67
2021/05/18 04:53:33;;;;;;;0.70;0.70;;;;;;;10.03;100.00;97937.56;5095395;28;20213;-67
2021/05/18 04:59:06;;;;;;;0.60;0.60;;;;;;;10.12;100.00;97939.59;5095017;28;20223;-66
2021/05/18 05:01:42;;;;;;;1.70;0.93;;;;;;;10.12;100.00;97944.88;5093140;28;20557;-66
2021/05/18 05:04:19;;;;;;;1.43;0.80;;;;;;;10.12;100.00;97945.72;5095198;28;20291;-66
2021/05/18 05:06:52;;;;;;;0.70;0.70;;;;;;;10.14;100.00;97950.88;5094989;28;20261;-66
2021/05/18 05:09:22;;;;;;;0.70;0.70;;;;;;;10.16;100.00;97949.00;5094986;28;20222;-66
2021/05/18 05:14:32;;;;;;;0.80;0.80;;;;;;;10.28;100.00;97954.25;5073201;28;20224;-66
2021/05/18 05:16:58;;;;;;;0.73;0.73;;;;;;;10.31;100.00;97955.81;5094804;28;20216;-66
2021/05/18 05:19:27;;;;;;;0.80;0.80;;;;;;;10.38;100.00;97957.94;5094778;28;20214;-65
2021/05/18 05:21:54;;;;;;;0.70;0.63;;;;;;;10.44;100.00;97969.84;5094414;28;20745;-65
2021/05/18 05:24:20;;;;;;;1.97;0.70;;;;;;;10.56;100.00;97967.19;5094655;28;20255;-65
2021/05/18 05:26:47;;;;;;;1.27;0.83;;;;;;;10.67;100.00;97963.75;5093029;28;20240;-66
2021/05/18 05:29:14;;;;;;;0.87;0.80;;;;;;;10.72;100.00;97970.44;5094385;28;20239;-66
2021/05/18 05:31:40;;;;;;;1.33;0.80;;;;;;;10.66;100.00;97976.16;5094266;28;20217;-66
2021/05/18 05:34:06;;;;;;;1.70;0.80;;;;;;;10.45;100.00;97971.56;5094196;28;20300;-65
2021/05/18 05:36:32;;;;;;;1.13;0.93;;;;;;;10.33;100.00;97980.34;5094438;28;20216;-65
2021/05/18 05:39:04;;;;;;;1.23;0.73;;;;;;;10.18;100.00;97981.41;5094526;28;20214;-65
2021/05/18 05:41:30;;;;;;;1.13;0.80;;;;;;;10.03;100.00;97977.19;5093792;28;20280;-66
2021/05/18 05:43:56;;;;;;;3.57;1.03;;;;;;;9.96;100.00;97981.16;5094463;28;20210;-67
2021/05/18 05:46:23;;;;;;;2.53;1.00;;;;;;;9.90;100.00;97981.63;5094322;28;20697;-65
2021/05/18 05:48:53;;;;;;;1.40;0.90;;;;;;;9.92;100.00;97990.28;5094108;28;20210;-66
2021/05/18 05:51:20;;;;;;;2.50;1.00;;;;;;;10.01;100.00;97994.91;5094602;28;20637;-66
2021/05/18 05:53:46;;;;;;;3.17;1.10;;;;;;;10.04;100.00;97994.75;5093820;28;20212;-66
2021/05/18 05:56:12;;;;;;;1.20;0.90;;;;;;;10.10;100.00;97991.69;5096967;28;20213;-66
2021/05/18 05:58:38;;;;;;;1.07;1.03;;;;;;;10.14;100.00;97990.50;5093933;28;20231;-67
2021/05/18 06:01:04;;;;;;;4.50;1.10;;;;;;;10.12;100.00;98003.81;5094003;28;20593;-67
2021/05/18 06:03:32;;;;;;;4.13;1.20;;;;;;;10.09;100.00;98013.75;5093716;28;20728;-68
2021/05/18 06:05:58;;;;;;;3.87;1.30;;;;;;;10.03;100.00;98006.22;5093613;28;20241;-66
2021/05/18 06:08:24;;;;;;;1.47;1.00;;;;;;;9.94;100.00;98001.56;5094008;28;20212;-65
2021/05/18 06:10:54;;;;;;;1.20;1.00;;;;;;;9.82;100.00;98005.91;5093666;28;20576;-64
2021/05/18 06:13:45;;;;;;;1.80;1.10;;;;;;;9.79;100.00;98005.25;5094025;28;20259;-64
2021/05/18 06:16:43;;;;;;;1.20;1.10;;;;;;;9.76;100.00;97993.13;5093240;28;20267;-64
2021/05/18 06:46:59;;;;;;;1.00;1.00;;;;;;;10.82;100.00;98015.53;5087245;28;20239;-62
2021/05/18 06:49:26;;;;;;;0.80;0.80;;;;;;;11.23;100.00;98027.44;5090806;28;20665;-64
2021/05/18 06:51:53;;;;;;;1.57;1.10;;;;;;;11.84;100.00;98023.72;5091983;28;20212;-62
2021/05/18 06:54:19;;;;;;;1.70;0.90;;;;;;;12.19;100.00;98029.81;5092699;28;20240;-62
2021/05/18 06:56:47;;;;;;;2.03;0.80;;;;;;;12.26;100.00;98026.59;5092737;28;20664;-63
2021/05/18 07:01:59;;;;;;;2.10;1.20;;;;;;;12.37;100.00;98045.16;5092426;28;20263;-64
2021/05/18 07:04:26;;;;;;;1.53;0.90;;;;;;;12.38;100.00;98038.03;5092623;28;20255;-64
2021/05/18 07:06:59;;;;;;;1.40;0.90;;;;;;;12.33;100.00;98041.06;5092739;28;20682;-64
2021/05/18 07:09:25;;;;;;;1.87;0.90;;;;;;;12.25;100.00;98053.19;5092533;28;20218;-65
2021/05/18 07:11:51;;;;;;;0.90;0.80;;;;;;;12.18;100.00;98049.34;5090459;28;20476;-66
2021/05/18 07:14:17;;;;;;;1.30;0.80;;;;;;;12.20;100.00;98042.09;5092659;28;20210;-66
2021/05/18 07:16:43;;;;;;;0.93;0.80;;;;;;;12.11;100.00;98048.13;5092283;28;20215;-65
2021/05/18 07:19:09;;;;;;;1.07;0.80;;;;;;;12.16;100.00;98056.56;5092867;28;20295;-65
2021/05/18 07:21:35;;;;;;;0.90;0.70;;;;;;;12.19;100.00;98056.31;5092536;28;20648;-65
2021/05/18 07:24:05;;;;;;;1.23;0.80;;;;;;;12.19;100.00;98056.31;5092483;28;20211;-65
2021/05/18 07:26:31;;;;;;;1.80;0.70;;;;;;;12.27;100.00;98059.22;5092239;28;20235;-65
2021/05/18 07:28:57;;;;;;;1.97;1.00;;;;;;;12.39;100.00;98053.81;5092142;28;20231;-66
2021/05/18 07:31:23;;;;;;;1.43;0.70;;;;;;;12.44;100.00;98056.97;5092060;28;20216;-65
2021/05/18 07:33:49;;;;;;;1.23;0.90;;;;;;;12.54;100.00;98059.75;5092325;28;20251;-65
2021/05/18 07:36:15;;;;;;;1.33;0.90;;;;;;;12.65;100.00;98051.81;5092426;28;20656;-66
2021/05/18 07:38:43;;;;;;;0.80;0.80;;;;;;;12.82;99.54;98053.94;5091642;28;20230;-65
2021/05/18 07:41:10;;;;;;;1.20;0.90;;;;;;;13.00;98.49;98056.03;5093849;28;20249;-66
2021/05/18 07:43:37;;;;;;;0.87;0.80;;;;;;;13.09;96.31;98049.13;5093588;28;20672;-70
2021/05/18 07:46:04;;;;;;;1.47;0.90;;;;;;;13.21;96.18;98059.59;5094306;28;20246;-65
2021/05/18 07:48:36;;;;;;;1.13;1.03;;;;;;;13.18;94.82;98064.31;5092462;28;20256;-66
2021/05/18 07:51:11;;;;;;;2.17;1.10;;;;;;;13.03;95.93;98052.28;5092130;28;20572;-66
2021/05/18 07:59:23;;;;;;;2.70;1.47;;;;;;;12.74;95.20;98053.72;5091952;28;20210;-66
2021/05/18 08:07:34;;;;;;;2.07;1.20;;;;;;;13.13;97.20;98054.06;5053089;28;20218;-65
2021/05/18 08:10:07;;;;;;;2.00;1.40;;;;;;;13.38;96.14;98050.28;5076883;28;20622;-65
2021/05/18 08:12:34;;;;;;;1.40;1.00;;;;;;;13.65;93.29;98042.69;5095586;28;20216;-66
2021/05/18 08:15:12;;;;;;;1.50;1.30;;;;;;;13.95;92.34;98040.13;5095217;28;20215;-66
2021/05/18 08:17:42;;;;;;;2.03;1.40;;;;;;;14.25;88.23;98026.94;5095169;28;20236;-66
2021/05/18 09:01:51;;;;;;;2.63;1.30;;;;;;;15.15;79.85;98022.41;5093127;28;20222;-66
2021/05/18 09:44:40;;;;;;;0.70;0.60;;;;;;;13.07;93.44;98005.97;5092953;28;20585;-64
2021/05/18 09:50:22;;;;;;;0.80;0.70;;;;;;;12.49;99.41;97998.28;5082766;28;20240;-64
2021/05/18 10:36:28;;;;;;;1.80;0.80;;;;;;;14.91;78.12;97950.06;5093295;28;20211;-66
2021/05/18 10:39:16;;;;;;;1.53;0.70;;;;;;;15.17;75.70;97947.72;5092840;28;20207;-66
2021/05/18 10:41:42;;;;;;;1.80;0.93;;;;;;;15.30;77.27;97942.97;5092453;28;20243;-66
2021/05/18 10:44:09;;;;;;;1.13;0.70;;;;;;;15.28;74.52;97945.75;5092783;28;20295;-66
2021/05/18 10:46:47;;;;;;;1.27;0.77;;;;;;;15.39;71.93;97944.84;5091396;28;20238;-66
2021/05/18 10:49:14;;;;;;;0.70;0.60;;;;;;;15.68;71.45;97948.31;5092780;28;20216;-66
2021/05/18 10:51:56;;;;;;;2.27;0.67;;;;;;;15.90;64.79;97948.00;5092771;28;20213;-65
2021/05/18 10:54:28;;;;;;;1.23;0.77;;;;;;;16.23;67.13;97935.88;5092673;28;20216;-66
2021/05/18 10:57:04;;;;;;;1.83;0.67;;;;;;;16.18;64.31;97938.13;5092462;28;20214;-66
2021/05/18 10:59:32;;;;;;;1.47;0.67;;;;;;;16.08;65.25;97937.28;5092627;28;20501;-66
2021/05/18 11:01:59;;;;;;;2.23;0.80;;;;;;;15.99;61.79;97937.31;5092336;28;20205;-66
2021/05/18 11:04:26;;;;;;;1.30;0.70;;;;;;;16.08;63.18;97935.63;5092359;28;20209;-66
2021/05/18 11:06:53;;;;;;;1.57;0.90;;;;;;;16.47;62.18;97930.84;5092462;28;20244;-66
2021/05/18 11:09:20;;;;;;;2.50;0.60;;;;;;;16.97;61.65;97931.28;5092585;28;20222;-66
2021/05/18 11:11:48;;;;;;;1.83;0.70;;;;;;;17.22;60.30;97926.06;5090627;28;20224;-66
2021/05/18 11:14:16;;;;;;;2.93;0.80;;;;;;;17.46;58.27;97920.13;5092511;28;20296;-66
2021/05/18 11:16:42;;;;;;;1.20;0.70;;;;;;;17.45;58.74;97932.66;5092154;28;20687;-66
2021/05/18 11:19:10;;;;;;;1.77;0.70;;;;;;;17.37;58.48;97929.91;5092469;28;20216;-66
2021/05/18 11:21:40;;;;;;;2.43;0.87;;;;;;;17.04;52.92;97925.22;5092265;28;20297;-66
2021/05/18 11:24:11;;;;;;;1.80;0.60;;;;;;;16.82;58.56;97927.47;5092504;28;20214;-66
2021/05/18 11:26:47;;;;;;;2.23;1.07;;;;;;;16.74;56.80;97930.03;5092099;28;20229;-66
2021/05/18 11:29:13;;;;;;;1.93;0.70;;;;;;;16.83;58.68;97918.47;5092474;28;20240;-66
2021/05/18 11:31:40;;;;;;;1.37;0.77;;;;;;;16.84;57.59;97907.66;5092385;28;20213;-66
2021/05/18 11:34:06;;;;;;;1.53;0.70;;;;;;;16.64;55.59;97919.41;5092328;28;20206;-66
2021/05/18 11:36:34;;;;;;;2.37;0.80;;;;;;;16.69;55.28;97906.47;5093980;28;20217;-66
2021/05/18 11:39:06;;;;;;;1.20;0.70;;;;;;;16.88;53.92;97903.66;5094712;28;20221;-66
2021/05/18 11:41:34;;;;;;;1.73;0.70;;;;;;;16.98;56.68;97904.47;5095757;28;20317;-66
2021/05/18 11:44:02;;;;;;;3.67;1.03;;;;;;;16.77;54.16;97913.72;5096060;28;20214;-66
2021/05/18 11:46:29;;;;;;;1.20;0.70;;;;;;;16.90;52.58;97903.53;5095721;28;20238;-66
2021/05/18 11:49:00;;;;;;;1.67;0.67;;;;;;;16.96;54.76;97903.75;5095824;28;20207;-66
2021/05/18 11:51:27;;;;;;;2.40;0.70;;;;;;;17.30;54.14;97918.13;5096097;28;21574;-66
2021/05/18 11:53:54;;;;;;;1.43;0.70;;;;;;;17.56;54.69;97924.41;5096037;28;20260;-66
2021/05/18 11:56:24;;;;;;;1.10;0.50;;;;;;;17.33;51.85;97927.66;5095978;28;20613;-66
2021/05/18 11:59:02;;;;;;;1.33;0.43;;;;;;;17.04;53.29;97933.22;5095934;28;20214;-66
2021/05/18 12:01:29;;;;;;;1.83;0.50;;;;;;;16.60;55.66;97931.38;5095825;28;20578;-66
2021/05/18 12:04:07;;;;;;;0.93;0.40;;;;;;;16.52;55.04;97933.94;5095816;28;20222;-66
2021/05/18 12:06:35;;;;;;;0.50;0.40;;;;;;;16.65;53.30;97936.25;5093679;28;20291;-67
2021/05/18 12:09:03;;;;;;;2.03;0.70;;;;;;;17.00;54.59;97931.84;5095355;28;20224;-67
2021/05/18 12:11:29;;;;;;;0.60;0.40;;;;;;;17.31;54.20;97922.47;5095504;28;20216;-67
2021/05/18 12:13:54;;;;;;;0.57;0.50;;;;;;;17.38;52.30;97912.06;5095742;28;20217;-66
2021/05/18 12:16:23;;;;;;;0.53;0.40;;;;;;;17.27;51.15;97906.91;5095263;28;20299;-66
2021/05/18 12:18:53;;;;;;;0.77;0.43;;;;;;;17.11;51.93;97902.25;5095125;28;20217;-66
2021/05/18 12:21:22;;;;;;;1.50;0.57;;;;;;;16.93;52.25;97897.88;5095588;28;20206;-66
2021/05/18 12:24:10;;;;;;;0.40;0.40;;;;;;;16.57;52.68;97885.47;5095315;28;20214;-66
2021/05/18 12:26:47;;;;;;;1.40;0.60;;;;;;;16.46;57.26;97889.16;5095268;28;20230;-67
2021/05/18 12:29:25;;;;;;;2.07;0.60;;;;;;;16.53;57.34;97878.75;5095323;28;20224;-66
2021/05/18 12:31:52;;;;;;;1.20;0.60;;;;;;;16.69;58.92;97879.78;5093678;28;20296;-66
2021/05/18 12:34:27;;;;;;;0.97;0.57;;;;;;;17.15;57.77;97882.28;5095308;28;20288;-66
2021/05/18 12:36:55;;;;;;;1.50;0.60;;;;;;;17.55;52.60;97877.28;5095127;28;20209;-66
2021/05/18 12:39:21;;;;;;;2.37;0.57;;;;;;;17.67;52.50;97873.38;5095229;28;20213;-66
2021/05/18 12:41:52;;;;;;;1.90;0.60;;;;;;;17.45;54.80;97892.59;5095244;28;20231;-66
2021/05/18 12:44:19;;;;;;;0.97;0.63;;;;;;;17.21;55.99;97889.66;5095152;28;20215;-66
2021/05/18 12:46:56;;;;;;;2.33;0.60;;;;;;;16.99;55.71;97890.09;5095300;28;20242;-67
2021/05/18 12:49:41;;;;;;;1.07;0.50;;;;;;;16.46;53.30;97894.50;5093726;28;20209;-67
2021/05/18 12:52:11;;;;;;;2.40;0.50;;;;;;;16.14;58.46;97888.72;5092755;28;20236;-67
2021/05/18 12:54:38;;;;;;;0.90;0.50;;;;;;;16.01;58.85;97887.34;5094314;28;20210;-67
2021/05/18 12:57:05;;;;;;;0.57;0.50;;;;;;;15.90;59.26;97886.72;5094573;28;20221;-67
2021/05/18 12:59:31;;;;;;;0.43;0.30;;;;;;;16.04;57.91;97879.91;5091576;28;20578;-66
2021/05/18 13:01:57;;;;;;;0.40;0.40;;;;;;;16.15;60.40;97873.56;5092603;28;20612;-66
2021/05/18 13:04:23;;;;;;;1.07;0.60;;;;;;;16.22;59.79;97875.47;5094981;28;20587;-67
2021/05/18 13:06:51;;;;;;;1.17;0.60;;;;;;;16.39;56.19;97872.06;5094768;28;20233;-67
2021/05/18 13:09:19;;;;;;;0.77;0.40;;;;;;;16.50;54.75;97879.03;5095522;28;20218;-67
2021/05/18 13:14:56;;;;;;;0.50;0.43;;;;;;;16.47;56.58;97874.84;5095031;28;20742;-67
2021/05/18 13:17:22;;;;;;;0.77;0.50;;;;;;;16.59;57.12;97873.63;5094163;28;20207;-67
2021/05/18 13:19:56;;;;;;;2.70;0.70;;;;;;;17.03;57.47;97875.47;5094241;28;20214;-67
2021/05/18 13:22:23;;;;;;;2.13;0.60;;;;;;;17.28;56.67;97882.72;5094235;28;20237;-67
2021/05/18 13:27:34;;;;;;;1.20;0.70;;;;;;;17.24;56.00;97880.50;5093887;28;20240;-67
2021/05/18 13:30:00;;;;;;;1.03;0.63;;;;;;;17.05;58.49;97886.84;5094405;28;20218;-66
2021/05/18 13:32:26;;;;;;;0.87;0.50;;;;;;;17.00;56.80;97873.09;5094225;28;20210;-66
2021/05/18 13:34:52;;;;;;;0.97;0.60;;;;;;;17.06;58.40;97867.16;5094187;28;20256;-67
2021/05/18 13:37:18;;;;;;;0.97;0.60;;;;;;;17.15;58.11;97863.56;5093879;28;20214;-67
2021/05/18 13:39:44;;;;;;;1.80;0.53;;;;;;;17.29;55.20;97857.69;5093842;28;20210;-66
2021/05/18 13:42:11;;;;;;;0.97;0.40;;;;;;;17.22;54.75;97864.63;5093906;28;20266;-67
2021/05/18 13:44:37;;;;;;;2.40;0.67;;;;;;;17.03;51.87;97862.13;5093849;28;20233;-67
2021/05/18 13:47:03;;;;;;;1.60;0.60;;;;;;;16.87;53.81;97861.94;5093821;28;20324;-67
2021/05/18 13:49:29;;;;;;;0.40;0.40;;;;;;;16.89;54.94;97851.94;5093524;28;20290;-66
2021/05/18 13:51:55;;;;;;;1.37;0.57;;;;;;;16.92;56.39;97854.34;5091941;28;20242;-67
2021/05/18 13:54:21;;;;;;;2.00;0.50;;;;;;;16.90;54.96;97845.66;5093515;28;20629;-67
2021/05/18 13:56:47;;;;;;;0.40;0.40;;;;;;;16.96;54.08;97836.19;5093462;28;20617;-67
2021/05/18 13:59:13;;;;;;;2.00;0.60;;;;;;;16.92;54.71;97845.47;5092777;28;20577;-67
2021/05/18 14:01:39;;;;;;;1.93;0.70;;;;;;;16.96;57.20;97860.22;5093440;28;20603;-67
2021/05/18 14:04:05;;;;;;;2.00;0.70;;;;;;;16.82;57.10;97864.22;5093401;28;20210;-67
2021/05/18 14:06:32;;;;;;;1.90;0.80;;;;;;;16.72;59.61;97868.81;5093259;28;20240;-67
2021/05/18 14:08:58;;;;;;;1.00;0.60;;;;;;;16.46;63.25;97880.34;5093273;28;20217;-67
2021/05/18 14:11:24;;;;;;;2.73;0.50;;;;;;;15.77;63.51;97889.66;5093356;28;20210;-66
2021/05/18 14:13:52;;;;;;;1.13;0.80;;;;;;;15.57;66.22;97889.88;5092955;28;20206;-67
2021/05/18 14:16:21;;;;;;;1.13;0.60;;;;;;;15.43;66.10;97895.63;5092989;28;20219;-67
2021/05/18 14:18:49;;;;;;;0.60;0.57;;;;;;;15.30;66.24;97895.03;5092042;28;20209;-66
2021/05/18 14:21:15;;;;;;;1.37;0.50;;;;;;;15.37;67.02;97901.50;5092988;28;20207;-66
2021/05/18 14:23:44;;;;;;;1.50;0.60;;;;;;;15.71;67.87;97900.91;5092782;28;20674;-67
2021/05/18 14:26:10;;;;;;;0.63;0.50;;;;;;;15.98;66.50;97897.47;5093070;28;20322;-66
2021/05/18 14:28:37;;;;;;;0.87;0.50;;;;;;;16.17;65.66;97899.09;5093152;28;20206;-67
2021/05/18 14:31:05;;;;;;;1.43;0.40;;;;;;;16.18;65.31;97898.13;5092788;28;20694;-66
2021/05/18 14:33:32;;;;;;;0.60;0.40;;;;;;;16.22;60.47;97896.81;5093093;28;20209;-66
2021/05/18 14:35:58;;;;;;;0.50;0.40;;;;;;;16.17;60.91;97893.78;5093133;28;20619;-66
2021/05/18 14:38:25;;;;;;;0.43;0.40;;;;;;;16.35;60.92;97893.84;5092650;28;20687;-67
2021/05/18 14:44:01;;;;;;;1.30;0.53;;;;;;;16.44;63.95;97896.50;5092576;28;20318;-66
2021/05/18 14:46:31;;;;;;;0.70;0.37;;;;;;;16.23;63.84;97887.84;5091202;28;20259;-66
2021/05/18 14:54:52;;;;;;;0.60;0.50;;;;;;;16.22;62.56;97880.81;5092701;28;20216;-66
2021/05/18 14:57:18;;;;;;;1.07;0.50;;;;;;;16.22;65.57;97870.16;5092922;28;20248;-67
2021/05/18 14:59:44;;;;;;;0.40;0.40;;;;;;;16.15;65.48;97879.72;5092807;28;20221;-67
2021/05/18 15:02:10;;;;;;;1.43;0.50;;;;;;;16.10;66.16;97875.84;5092812;28;20237;-66
2021/05/18 15:04:38;;;;;;;1.40;0.73;;;;;;;16.01;65.42;97875.88;5092780;28;20569;-66
2021/05/18 15:07:07;;;;;;;0.60;0.53;;;;;;;15.93;65.09;97889.06;5092269;28;20780;-66
2021/05/18 15:09:33;;;;;;;1.20;0.53;;;;;;;16.10;59.93;97881.16;5092758;28;20222;-66
2021/05/18 15:11:59;;;;;;;0.90;0.50;;;;;;;16.08;60.32;97883.97;5094484;28;20209;-66
2021/05/18 15:14:25;;;;;;;0.97;0.60;;;;;;;16.18;59.65;97883.94;5096184;28;20210;-66
2021/05/18 15:16:51;;;;;;;0.60;0.50;;;;;;;16.38;60.83;97881.06;5096827;28;20213;-66
2021/05/18 15:19:18;;;;;;;1.73;0.70;;;;;;;16.58;59.34;97871.97;5095121;28;20217;-67
2021/05/18 15:21:45;;;;;;;0.97;0.60;;;;;;;16.90;58.83;97875.00;5094236;28;20209;-67
2021/05/18 15:24:11;;;;;;;0.67;0.47;;;;;;;17.13;57.38;97880.75;5095763;28;20582;-66
2021/05/18 15:26:38;;;;;;;0.40;0.40;;;;;;;17.22;55.33;97878.00;5095783;28;20233;-66
2021/05/18 15:29:05;;;;;;;0.90;0.30;;;;;;;17.24;54.32;97878.66;5088609;28;20212;-66
2021/05/18 15:31:32;;;;;;;1.40;0.47;;;;;;;17.13;51.28;97878.88;5073628;28;20575;-67
2021/05/18 15:33:58;;;;;;;0.80;0.50;;;;;;;16.80;52.11;97876.91;5075332;28;20222;-67
2021/05/18 15:36:24;;;;;;;1.60;0.40;;;;;;;16.50;50.73;97876.38;5074889;28;20210;-67
2021/05/18 15:38:53;;;;;;;0.30;0.30;;;;;;;16.23;54.16;97893.19;5076197;28;20273;-67
2021/05/18 15:41:20;;;;;;;0.50;0.40;;;;;;;16.17;56.69;97877.78;5073982;28;20227;-67
2021/05/18 15:43:46;;;;;;;0.73;0.50;;;;;;;16.07;56.91;97876.09;5075973;28;20207;-68
2021/05/18 15:46:13;;;;;;;1.00;0.50;;;;;;;16.08;58.86;97877.78;5075787;28;20256;-68